ASIAQ
Weather Now
GREENLAND SURVEY
Sorting:
| Location |
Updated [WGT/WGST] |
Temperature [°C] |
Wind [m/s] |
Air pressure [hPa] |
Relative humidity [%] |
Precipitation [mm] |
| Present | Wind chill | Speed | Max |
| Qaanaaq | 02.09 05:00 | 3,1 | -0,1 | 3,5 ⇘ | 4,7 | 1010 | 79 | 0,0 |
| Kitsissut | 02.09 05:00 | 3,0 | -1,0 | 4,6 ⇐ | 5,1 | 1010 | 93 | n/a |
| Kitsissorsuit | 02.09 05:00 | 4,2 | -0,2 | 6,2 ⇐ | 7,2 | 1007 | 89 | n/a |
| Upernavik | 02.09 05:00 | 3,5 | 0,1 | 3,8 ⇐ | 4,4 | 996 | 94 | 0,0 |
| Qaarsut | 02.09 05:00 | 4,2 | -0,5 | 7,0 ⇖ | 8,4 | 1001 | 92 | 0,0 |
| Nuussuaq | 02.09 05:00 | 5,3 | 3,7 | 2,1 ⇓ | 3,1 | 1008 | 84 | n/a |
| Qeqertarsuaq | 02.09 05:00 | 6,2 | 3,4 | 3,7 ⇐ | 5,4 | 1010 | 77 | 0,0 |
| Ilulissat | 02.09 05:00 | 4,3 | 1,6 | 3,0 ⇘ | 3,9 | 1008 | 56 | 0,0 |
| Qasigiannguit | 02.09 05:30 | 5,2 | 3,9 | 1,6 ⇓ | 2,0 | 1008 | 61 | n/a |
| Aasiaat | 02.09 05:00 | 5,5 | n/a | 1,2 ⇙ | 2,0 | 1006 | 88 | 0,0 |
| Kangerlussuaq | 02.09 05:00 | 4,9 | 2,0 | 3,6 ⇙ | 4,9 | 1005 | 62 | n/a |
| Sisimiut | 02.09 05:00 | 5,9 | n/a | 0,0 ⇓ | 1,0 | 1010 | 89 | 0,0 |
| Maniitsoq | 02.09 05:00 | 7,6 | 6,3 | 2,1 ⇖ | 2,8 | 1008 | 71 | 0,0 |
| Sioralik | 02.09 05:00 | 6,2 | 4,7 | 2,1 ⇒ | 2,1 | 1011 | 96 | n/a |
| Niaqornaa | 02.09 05:00 | 6,4 | 2,5 | 6,5 ⇙ | 8,2 | 1005 | 49 | n/a |
| Qeqertannguaq | 02.09 05:30 | 6,4 | 4,2 | 3,1 ⇖ | 4,0 | n/a | 72 | n/a |
| Kapisillit | 02.09 05:00 | 2,9 | -0,5 | 3,7 ⇐ | 5,0 | 1003 | 74 | 0,0 |
| Kuanninnguit | 02.09 05:00 | 4,1 | 1,8 | 2,4 ⇙ | 4,5 | 1005 | 98 | n/a |
| Nuuk City | 02.09 05:30 | 3,8 | 2,7 | 1,5 ⇗ | 2,2 | 1002 | 100 | n/a |
| Ukiiviit | 02.09 05:00 | 2,7 | -0,3 | 3,1 ⇓ | 4,1 | 1010 | 100 | n/a |
| Paamiut | 02.09 05:00 | 1,6 | n/a | 1,1 ⇘ | 2,2 | 1008 | 100 | 0,0 |
| Narsarsuaq | 02.09 05:00 | 3,2 | 2,0 | 1,4 ⇙ | 2,6 | 1007 | 52 | n/a |
| Narsaq | 02.09 05:00 | 0,7 | n/a | 0,9 ⇓ | 1,7 | 1008 | 87 | 0,0 |
| Nunarsuit | 02.09 05:00 | 3,0 | -1,9 | 6,7 ⇘ | 8,8 | 1007 | 100 | n/a |
| Upernaviarsuk | 02.09 05:00 | 2,4 | 0,6 | 1,8 ⇐ | 3,2 | 1010 | 91 | n/a |
| Qaqortoq | 02.09 05:00 | 5,5 | 3,3 | 2,7 ⇘ | 4,6 | 1004 | 80 | 0,0 |
| Angisoq | 02.09 05:00 | 4,7 | 0,4 | 6,2 ⇘ | 6,7 | 1009 | 97 | n/a |
| Prins Christian Sund | 02.09 05:00 | 5,0 | n/a | 0,5 ⇓ | 1,5 | 998 | 71 | n/a |
| Nanortalik | 02.09 05:00 | 5,3 | 2,9 | 2,9 ⇓ | 4,3 | 1009 | 91 | n/a |
| Ikermiuarsuk | 02.09 05:00 | 4,4 | -0,1 | 6,7 ⇓ | 7,7 | 1005 | 67 | n/a |
| Ikermit | 02.09 05:00 | 1,5 | -4,8 | 9,3 ⇘ | 11,3 | 1000 | 48 | n/a |
| Kulusuk | 02.09 05:00 | 2,2 | 1,0 | 1,3 ⇖ | 2,2 | 1005 | 87 | n/a |
| Tasiilaq | 02.09 05:00 | 2,0 | n/a | 0,8 ⇖ | 1,7 | 1003 | 82 | 0,0 |
| Aputiteeq | 02.09 05:00 | 0,1 | -3,9 | 3,6 ⇒ | 4,1 | 1009 | 96 | n/a |
| Ittoqqortoormiit | 02.09 05:00 | 3,4 | -1,2 | 6,3 ⇖ | 9,0 | 1003 | 84 | n/a |
| Nerlerit Inaat | 02.09 05:00 | 3,8 | 2,1 | 2,0 ⇓ | 2,0 | 1010 | 78 | n/a |
| Daneborg | 02.09 05:00 | 2,7 | 0,1 | 3,0 ⇖ | 4,0 | 1013 | 81 | n/a |
| Zackenberg | 01.09 12:00 | n/a | n/a | 2,1 ⇑ | 3,4 | n/a | n/a | n/a |
| Danmarkshavn | 02.09 05:00 | 0,5 | n/a | n/a | 4,0 | 1014 | 61 | n/a |
| Henrik Krøyer Holme | 02.09 05:00 | -5,9 | -12,4 | 5,0 ⇙ | 7,0 | 1013 | 92 | n/a |
| Station Nord | 02.09 05:00 | -6,4 | n/a | n/a | n/a | 1011 | 89 | n/a |
| Kap Morris Jesup | 02.09 05:00 | -5,0 | n/a | n/a | n/a | 1012 | 97 | n/a |
Advanced version ⤻
Data source - Operated by - Disclaimer ▼